sensor_id;sensor_type;location;lat;lon;timestamp;P1;durP1;ratioP1;P2;durP2;ratioP2
68655;SDS011;55638;51.122;13.606;2023-03-30T00:01:15;5.43;;;3.75;;
68655;SDS011;55638;51.122;13.606;2023-03-30T00:02:48;4.60;;;3.65;;
68655;SDS011;55638;51.122;13.606;2023-03-30T00:04:24;5.57;;;4.22;;
68655;SDS011;55638;51.122;13.606;2023-03-30T00:06:01;6.00;;;3.72;;
68655;SDS011;55638;51.122;13.606;2023-03-30T00:07:35;6.30;;;4.03;;
68655;SDS011;55638;51.122;13.606;2023-03-30T00:09:15;6.00;;;3.65;;
68655;SDS011;55638;51.122;13.606;2023-03-30T00:10:47;6.78;;;4.35;;
68655;SDS011;55638;51.122;13.606;2023-03-30T00:12:18;5.47;;;3.70;;
68655;SDS011;55638;51.122;13.606;2023-03-30T00:13:51;5.88;;;3.60;;
68655;SDS011;55638;51.122;13.606;2023-03-30T00:15:23;4.93;;;3.90;;
68655;SDS011;55638;51.122;13.606;2023-03-30T00:16:55;6.18;;;4.50;;
68655;SDS011;55638;51.122;13.606;2023-03-30T00:18:27;6.97;;;4.22;;
68655;SDS011;55638;51.122;13.606;2023-03-30T00:20:00;5.40;;;4.57;;
68655;SDS011;55638;51.122;13.606;2023-03-30T00:21:32;5.18;;;4.15;;
68655;SDS011;55638;51.122;13.606;2023-03-30T00:23:05;5.75;;;4.25;;
68655;SDS011;55638;51.122;13.606;2023-03-30T00:24:37;6.88;;;4.57;;
68655;SDS011;55638;51.122;13.606;2023-03-30T00:26:09;6.38;;;4.90;;
68655;SDS011;55638;51.122;13.606;2023-03-30T00:27:41;7.95;;;4.50;;
68655;SDS011;55638;51.122;13.606;2023-03-30T00:29:15;6.63;;;4.43;;
68655;SDS011;55638;51.122;13.606;2023-03-30T00:30:47;7.78;;;4.57;;
68655;SDS011;55638;51.122;13.606;2023-03-30T00:32:19;6.50;;;4.30;;
68655;SDS011;55638;51.122;13.606;2023-03-30T00:33:53;5.80;;;4.53;;
68655;SDS011;55638;51.122;13.606;2023-03-30T00:35:25;5.50;;;4.40;;
68655;SDS011;55638;51.122;13.606;2023-03-30T00:37:01;6.28;;;4.50;;
68655;SDS011;55638;51.122;13.606;2023-03-30T00:38:33;7.63;;;4.65;;
68655;SDS011;55638;51.122;13.606;2023-03-30T00:40:06;6.43;;;4.20;;
68655;SDS011;55638;51.122;13.606;2023-03-30T00:41:39;5.18;;;4.32;;
68655;SDS011;55638;51.122;13.606;2023-03-30T00:43:12;5.43;;;4.13;;
68655;SDS011;55638;51.122;13.606;2023-03-30T00:45:01;6.70;;;4.53;;
68655;SDS011;55638;51.122;13.606;2023-03-30T00:46:39;5.43;;;4.13;;
68655;SDS011;55638;51.122;13.606;2023-03-30T00:48:13;6.68;;;4.47;;
68655;SDS011;55638;51.122;13.606;2023-03-30T00:49:53;6.97;;;3.90;;
68655;SDS011;55638;51.122;13.606;2023-03-30T00:51:25;6.00;;;4.15;;
68655;SDS011;55638;51.122;13.606;2023-03-30T00:52:59;5.90;;;4.10;;
68655;SDS011;55638;51.122;13.606;2023-03-30T00:54:32;5.03;;;3.75;;
68655;SDS011;55638;51.122;13.606;2023-03-30T00:56:05;5.47;;;3.90;;
68655;SDS011;55638;51.122;13.606;2023-03-30T00:57:39;5.90;;;3.95;;
68655;SDS011;55638;51.122;13.606;2023-03-30T00:59:13;6.05;;;3.63;;
68655;SDS011;55638;51.122;13.606;2023-03-30T01:00:46;6.65;;;4.50;;
68655;SDS011;55638;51.122;13.606;2023-03-30T01:02:19;6.55;;;4.25;;
68655;SDS011;55638;51.122;13.606;2023-03-30T01:03:52;4.95;;;3.80;;
68655;SDS011;55638;51.122;13.606;2023-03-30T01:05:25;5.38;;;4.28;;
68655;SDS011;55638;51.122;13.606;2023-03-30T01:06:59;9.23;;;5.50;;
68655;SDS011;55638;51.122;13.606;2023-03-30T01:08:31;8.48;;;4.75;;
68655;SDS011;55638;51.122;13.606;2023-03-30T01:10:04;8.02;;;5.47;;
68655;SDS011;55638;51.122;13.606;2023-03-30T01:11:38;6.22;;;4.75;;
68655;SDS011;55638;51.122;13.606;2023-03-30T01:13:11;8.13;;;5.05;;
68655;SDS011;55638;51.122;13.606;2023-03-30T01:14:45;6.85;;;4.90;;
68655;SDS011;55638;51.122;13.606;2023-03-30T01:16:28;8.07;;;5.25;;
68655;SDS011;55638;51.122;13.606;2023-03-30T01:18:14;8.77;;;4.97;;
68655;SDS011;55638;51.122;13.606;2023-03-30T01:23:38;6.57;;;4.70;;
68655;SDS011;55638;51.122;13.606;2023-03-30T01:25:28;7.47;;;4.78;;
68655;SDS011;55638;51.122;13.606;2023-03-30T01:29:28;8.40;;;4.70;;
68655;SDS011;55638;51.122;13.606;2023-03-30T01:35:57;6.68;;;4.82;;
68655;SDS011;55638;51.122;13.606;2023-03-30T01:41:37;5.88;;;4.40;;
68655;SDS011;55638;51.122;13.606;2023-03-30T01:43:40;7.05;;;4.72;;
68655;SDS011;55638;51.122;13.606;2023-03-30T01:47:32;6.97;;;4.43;;
68655;SDS011;55638;51.122;13.606;2023-03-30T01:49:10;5.72;;;4.32;;
68655;SDS011;55638;51.122;13.606;2023-03-30T01:50:55;5.32;;;4.15;;
68655;SDS011;55638;51.122;13.606;2023-03-30T01:52:32;8.90;;;5.22;;
68655;SDS011;55638;51.122;13.606;2023-03-30T01:54:12;7.85;;;5.47;;
68655;SDS011;55638;51.122;13.606;2023-03-30T01:56:37;6.75;;;4.78;;
68655;SDS011;55638;51.122;13.606;2023-03-30T01:59:37;7.63;;;5.43;;
68655;SDS011;55638;51.122;13.606;2023-03-30T02:01:14;8.98;;;5.68;;
68655;SDS011;55638;51.122;13.606;2023-03-30T02:03:02;6.30;;;4.85;;
68655;SDS011;55638;51.122;13.606;2023-03-30T02:04:39;8.00;;;5.70;;
68655;SDS011;55638;51.122;13.606;2023-03-30T02:06:18;7.63;;;5.65;;
68655;SDS011;55638;51.122;13.606;2023-03-30T02:07:58;6.43;;;4.97;;
68655;SDS011;55638;51.122;13.606;2023-03-30T02:09:34;7.70;;;5.35;;
68655;SDS011;55638;51.122;13.606;2023-03-30T02:11:09;9.35;;;5.68;;
68655;SDS011;55638;51.122;13.606;2023-03-30T02:12:41;7.05;;;4.82;;
68655;SDS011;55638;51.122;13.606;2023-03-30T02:14:16;8.52;;;5.13;;
68655;SDS011;55638;51.122;13.606;2023-03-30T02:15:52;7.30;;;5.20;;
68655;SDS011;55638;51.122;13.606;2023-03-30T02:17:29;8.35;;;5.93;;
68655;SDS011;55638;51.122;13.606;2023-03-30T02:19:01;8.60;;;5.75;;
68655;SDS011;55638;51.122;13.606;2023-03-30T02:20:34;7.30;;;5.45;;
68655;SDS011;55638;51.122;13.606;2023-03-30T02:22:07;8.88;;;6.03;;
68655;SDS011;55638;51.122;13.606;2023-03-30T02:23:40;7.63;;;5.68;;
68655;SDS011;55638;51.122;13.606;2023-03-30T02:25:15;8.52;;;5.80;;
68655;SDS011;55638;51.122;13.606;2023-03-30T02:26:50;9.70;;;5.97;;
68655;SDS011;55638;51.122;13.606;2023-03-30T02:28:22;6.88;;;5.50;;
68655;SDS011;55638;51.122;13.606;2023-03-30T02:29:54;6.50;;;5.68;;
68655;SDS011;55638;51.122;13.606;2023-03-30T02:31:27;9.32;;;6.30;;
68655;SDS011;55638;51.122;13.606;2023-03-30T02:32:58;8.05;;;6.30;;
68655;SDS011;55638;51.122;13.606;2023-03-30T02:38:50;10.55;;;6.55;;
68655;SDS011;55638;51.122;13.606;2023-03-30T02:40:41;10.38;;;6.90;;
68655;SDS011;55638;51.122;13.606;2023-03-30T02:42:52;10.52;;;6.80;;
68655;SDS011;55638;51.122;13.606;2023-03-30T02:44:41;9.00;;;6.68;;
68655;SDS011;55638;51.122;13.606;2023-03-30T02:46:25;12.05;;;7.60;;
68655;SDS011;55638;51.122;13.606;2023-03-30T02:48:12;9.23;;;6.70;;
68655;SDS011;55638;51.122;13.606;2023-03-30T02:49:56;8.80;;;6.70;;
68655;SDS011;55638;51.122;13.606;2023-03-30T02:51:42;10.10;;;6.78;;
68655;SDS011;55638;51.122;13.606;2023-03-30T02:53:28;11.48;;;7.93;;
68655;SDS011;55638;51.122;13.606;2023-03-30T02:55:21;10.30;;;7.70;;
68655;SDS011;55638;51.122;13.606;2023-03-30T02:57:03;10.98;;;7.90;;
68655;SDS011;55638;51.122;13.606;2023-03-30T03:00:31;13.23;;;7.97;;
68655;SDS011;55638;51.122;13.606;2023-03-30T03:02:20;11.77;;;8.63;;
68655;SDS011;55638;51.122;13.606;2023-03-30T03:04:04;13.73;;;8.60;;
68655;SDS011;55638;51.122;13.606;2023-03-30T03:05:47;10.43;;;7.60;;
68655;SDS011;55638;51.122;13.606;2023-03-30T03:07:19;10.85;;;8.23;;
68655;SDS011;55638;51.122;13.606;2023-03-30T03:08:53;13.15;;;8.25;;
68655;SDS011;55638;51.122;13.606;2023-03-30T03:10:29;11.60;;;8.02;;
68655;SDS011;55638;51.122;13.606;2023-03-30T03:12:01;12.35;;;8.48;;
68655;SDS011;55638;51.122;13.606;2023-03-30T03:13:39;12.55;;;9.13;;
68655;SDS011;55638;51.122;13.606;2023-03-30T03:15:11;13.27;;;9.35;;
68655;SDS011;55638;51.122;13.606;2023-03-30T03:16:52;12.63;;;9.57;;
68655;SDS011;55638;51.122;13.606;2023-03-30T03:18:27;14.85;;;9.32;;
68655;SDS011;55638;51.122;13.606;2023-03-30T03:20:00;13.85;;;9.82;;
68655;SDS011;55638;51.122;13.606;2023-03-30T03:21:34;14.68;;;9.52;;
68655;SDS011;55638;51.122;13.606;2023-03-30T03:23:07;12.20;;;8.90;;
68655;SDS011;55638;51.122;13.606;2023-03-30T03:24:46;13.57;;;10.07;;
68655;SDS011;55638;51.122;13.606;2023-03-30T03:26:18;13.00;;;9.18;;
68655;SDS011;55638;51.122;13.606;2023-03-30T03:27:50;14.55;;;10.55;;
68655;SDS011;55638;51.122;13.606;2023-03-30T03:29:25;13.75;;;9.88;;
68655;SDS011;55638;51.122;13.606;2023-03-30T03:30:58;14.93;;;10.32;;
68655;SDS011;55638;51.122;13.606;2023-03-30T03:32:30;14.02;;;10.18;;
68655;SDS011;55638;51.122;13.606;2023-03-30T03:34:02;14.95;;;11.10;;
68655;SDS011;55638;51.122;13.606;2023-03-30T03:35:54;13.10;;;9.65;;
68655;SDS011;55638;51.122;13.606;2023-03-30T03:37:31;17.83;;;11.70;;
68655;SDS011;55638;51.122;13.606;2023-03-30T03:39:03;14.23;;;11.13;;
68655;SDS011;55638;51.122;13.606;2023-03-30T03:40:35;14.50;;;10.90;;
68655;SDS011;55638;51.122;13.606;2023-03-30T03:42:07;17.48;;;11.65;;
68655;SDS011;55638;51.122;13.606;2023-03-30T03:43:46;16.88;;;11.20;;
68655;SDS011;55638;51.122;13.606;2023-03-30T03:45:20;16.08;;;11.80;;
68655;SDS011;55638;51.122;13.606;2023-03-30T03:46:58;16.73;;;11.00;;
68655;SDS011;55638;51.122;13.606;2023-03-30T03:48:30;18.00;;;11.68;;
68655;SDS011;55638;51.122;13.606;2023-03-30T03:50:02;14.80;;;11.05;;
68655;SDS011;55638;51.122;13.606;2023-03-30T03:51:37;16.50;;;11.20;;
68655;SDS011;55638;51.122;13.606;2023-03-30T03:53:09;16.98;;;12.07;;
68655;SDS011;55638;51.122;13.606;2023-03-30T03:54:42;15.35;;;11.10;;
68655;SDS011;55638;51.122;13.606;2023-03-30T03:56:14;18.70;;;11.80;;
68655;SDS011;55638;51.122;13.606;2023-03-30T03:57:45;15.38;;;11.60;;
68655;SDS011;55638;51.122;13.606;2023-03-30T03:59:17;16.75;;;11.07;;
68655;SDS011;55638;51.122;13.606;2023-03-30T04:00:55;16.08;;;11.32;;
68655;SDS011;55638;51.122;13.606;2023-03-30T04:02:29;14.27;;;11.10;;
68655;SDS011;55638;51.122;13.606;2023-03-30T04:04:01;17.77;;;11.77;;
68655;SDS011;55638;51.122;13.606;2023-03-30T04:05:32;16.23;;;11.63;;
68655;SDS011;55638;51.122;13.606;2023-03-30T04:07:05;18.30;;;12.18;;
68655;SDS011;55638;51.122;13.606;2023-03-30T04:08:37;16.73;;;12.27;;
68655;SDS011;55638;51.122;13.606;2023-03-30T04:10:38;16.52;;;11.82;;
68655;SDS011;55638;51.122;13.606;2023-03-30T04:12:24;15.60;;;11.15;;
68655;SDS011;55638;51.122;13.606;2023-03-30T04:14:12;17.73;;;12.23;;
68655;SDS011;55638;51.122;13.606;2023-03-30T04:15:55;16.52;;;11.13;;
68655;SDS011;55638;51.122;13.606;2023-03-30T04:17:46;16.10;;;12.30;;
68655;SDS011;55638;51.122;13.606;2023-03-30T04:19:38;15.80;;;12.00;;
68655;SDS011;55638;51.122;13.606;2023-03-30T04:21:41;17.38;;;11.93;;
68655;SDS011;55638;51.122;13.606;2023-03-30T04:23:37;16.98;;;12.02;;
68655;SDS011;55638;51.122;13.606;2023-03-30T04:25:22;17.83;;;11.48;;
68655;SDS011;55638;51.122;13.606;2023-03-30T04:27:11;14.38;;;10.82;;
68655;SDS011;55638;51.122;13.606;2023-03-30T04:29:14;14.10;;;10.45;;
68655;SDS011;55638;51.122;13.606;2023-03-30T04:31:07;14.77;;;11.15;;
68655;SDS011;55638;51.122;13.606;2023-03-30T04:33:05;13.77;;;11.10;;
68655;SDS011;55638;51.122;13.606;2023-03-30T04:34:58;17.98;;;11.35;;
68655;SDS011;55638;51.122;13.606;2023-03-30T04:36:48;15.85;;;10.70;;
68655;SDS011;55638;51.122;13.606;2023-03-30T04:38:40;16.02;;;11.18;;
68655;SDS011;55638;51.122;13.606;2023-03-30T04:40:35;15.18;;;10.73;;
68655;SDS011;55638;51.122;13.606;2023-03-30T04:42:22;16.17;;;11.02;;
68655;SDS011;55638;51.122;13.606;2023-03-30T04:44:19;13.75;;;9.82;;
68655;SDS011;55638;51.122;13.606;2023-03-30T04:46:04;13.57;;;10.15;;
68655;SDS011;55638;51.122;13.606;2023-03-30T04:48:01;12.30;;;9.82;;
68655;SDS011;55638;51.122;13.606;2023-03-30T04:50:06;11.18;;;8.95;;
68655;SDS011;55638;51.122;13.606;2023-03-30T04:51:56;16.80;;;11.02;;
68655;SDS011;55638;51.122;13.606;2023-03-30T04:53:57;14.05;;;10.45;;
68655;SDS011;55638;51.122;13.606;2023-03-30T04:55:52;15.57;;;10.45;;
68655;SDS011;55638;51.122;13.606;2023-03-30T04:57:39;13.82;;;9.98;;
68655;SDS011;55638;51.122;13.606;2023-03-30T04:59:30;14.02;;;10.10;;
68655;SDS011;55638;51.122;13.606;2023-03-30T05:01:25;14.15;;;9.93;;
68655;SDS011;55638;51.122;13.606;2023-03-30T05:03:20;11.35;;;8.85;;
68655;SDS011;55638;51.122;13.606;2023-03-30T05:05:07;11.77;;;9.02;;
68655;SDS011;55638;51.122;13.606;2023-03-30T05:06:54;12.15;;;9.05;;
68655;SDS011;55638;51.122;13.606;2023-03-30T05:08:46;12.13;;;9.27;;
68655;SDS011;55638;51.122;13.606;2023-03-30T05:10:27;11.05;;;8.15;;
68655;SDS011;55638;51.122;13.606;2023-03-30T05:12:17;13.80;;;9.00;;
68655;SDS011;55638;51.122;13.606;2023-03-30T05:14:09;13.55;;;8.77;;
68655;SDS011;55638;51.122;13.606;2023-03-30T05:15:56;13.15;;;9.23;;
68655;SDS011;55638;51.122;13.606;2023-03-30T05:17:40;11.63;;;8.30;;
68655;SDS011;55638;51.122;13.606;2023-03-30T05:19:27;15.25;;;7.90;;
68655;SDS011;55638;51.122;13.606;2023-03-30T05:21:18;10.50;;;8.23;;
68655;SDS011;55638;51.122;13.606;2023-03-30T05:23:07;11.80;;;8.25;;
68655;SDS011;55638;51.122;13.606;2023-03-30T05:24:57;11.27;;;8.93;;
68655;SDS011;55638;51.122;13.606;2023-03-30T05:26:48;13.48;;;8.75;;
68655;SDS011;55638;51.122;13.606;2023-03-30T05:28:25;10.93;;;8.77;;
68655;SDS011;55638;51.122;13.606;2023-03-30T05:30:23;10.85;;;8.57;;
68655;SDS011;55638;51.122;13.606;2023-03-30T05:32:21;12.48;;;8.68;;
68655;SDS011;55638;51.122;13.606;2023-03-30T05:34:11;13.48;;;9.65;;
68655;SDS011;55638;51.122;13.606;2023-03-30T05:35:49;11.60;;;9.00;;
68655;SDS011;55638;51.122;13.606;2023-03-30T05:37:44;13.07;;;9.00;;
68655;SDS011;55638;51.122;13.606;2023-03-30T05:39:45;13.05;;;8.90;;
68655;SDS011;55638;51.122;13.606;2023-03-30T05:41:47;11.85;;;9.13;;
68655;SDS011;55638;51.122;13.606;2023-03-30T05:43:39;10.43;;;7.90;;
68655;SDS011;55638;51.122;13.606;2023-03-30T05:45:46;10.85;;;8.88;;
68655;SDS011;55638;51.122;13.606;2023-03-30T05:47:41;10.70;;;8.60;;
68655;SDS011;55638;51.122;13.606;2023-03-30T05:49:25;12.48;;;8.40;;
68655;SDS011;55638;51.122;13.606;2023-03-30T05:51:16;11.05;;;8.00;;
68655;SDS011;55638;51.122;13.606;2023-03-30T05:53:05;10.63;;;8.13;;
68655;SDS011;55638;51.122;13.606;2023-03-30T05:54:49;9.60;;;7.20;;
68655;SDS011;55638;51.122;13.606;2023-03-30T05:56:39;10.18;;;7.45;;
68655;SDS011;55638;51.122;13.606;2023-03-30T05:58:28;9.98;;;7.53;;
68655;SDS011;55638;51.122;13.606;2023-03-30T06:00:15;12.35;;;8.38;;
68655;SDS011;55638;51.122;13.606;2023-03-30T06:01:59;9.90;;;8.02;;
68655;SDS011;55638;51.122;13.606;2023-03-30T06:03:31;11.43;;;8.63;;
68655;SDS011;55638;51.122;13.606;2023-03-30T06:05:04;9.77;;;7.45;;
68655;SDS011;55638;51.122;13.606;2023-03-30T06:06:37;13.20;;;9.00;;
68655;SDS011;55638;51.122;13.606;2023-03-30T06:08:09;12.27;;;8.88;;
68655;SDS011;55638;51.122;13.606;2023-03-30T06:09:42;11.55;;;8.60;;
68655;SDS011;55638;51.122;13.606;2023-03-30T06:11:24;10.70;;;8.60;;
68655;SDS011;55638;51.122;13.606;2023-03-30T06:13:08;10.45;;;8.02;;
68655;SDS011;55638;51.122;13.606;2023-03-30T06:14:53;10.93;;;7.70;;
68655;SDS011;55638;51.122;13.606;2023-03-30T06:16:30;11.07;;;7.78;;
68655;SDS011;55638;51.122;13.606;2023-03-30T06:18:03;10.10;;;7.82;;
68655;SDS011;55638;51.122;13.606;2023-03-30T06:19:38;8.25;;;6.65;;
68655;SDS011;55638;51.122;13.606;2023-03-30T06:21:10;8.95;;;6.20;;
68655;SDS011;55638;51.122;13.606;2023-03-30T06:23:10;9.68;;;6.45;;
68655;SDS011;55638;51.122;13.606;2023-03-30T06:24:42;8.00;;;5.55;;
68655;SDS011;55638;51.122;13.606;2023-03-30T06:26:13;7.05;;;5.28;;
68655;SDS011;55638;51.122;13.606;2023-03-30T06:27:46;7.30;;;5.40;;
68655;SDS011;55638;51.122;13.606;2023-03-30T06:29:18;6.60;;;5.10;;
68655;SDS011;55638;51.122;13.606;2023-03-30T06:30:50;6.47;;;4.50;;
68655;SDS011;55638;51.122;13.606;2023-03-30T06:32:25;5.57;;;4.13;;
68655;SDS011;55638;51.122;13.606;2023-03-30T06:34:21;5.68;;;3.70;;
68655;SDS011;55638;51.122;13.606;2023-03-30T06:35:53;4.78;;;3.10;;
68655;SDS011;55638;51.122;13.606;2023-03-30T06:37:27;4.07;;;2.92;;
68655;SDS011;55638;51.122;13.606;2023-03-30T06:39:01;7.03;;;3.97;;
68655;SDS011;55638;51.122;13.606;2023-03-30T06:40:37;6.60;;;3.72;;
68655;SDS011;55638;51.122;13.606;2023-03-30T06:42:09;4.70;;;3.28;;
68655;SDS011;55638;51.122;13.606;2023-03-30T06:44:07;4.97;;;3.40;;
68655;SDS011;55638;51.122;13.606;2023-03-30T06:45:49;4.70;;;2.88;;
68655;SDS011;55638;51.122;13.606;2023-03-30T06:47:22;5.20;;;3.17;;
68655;SDS011;55638;51.122;13.606;2023-03-30T06:48:54;5.88;;;3.60;;
68655;SDS011;55638;51.122;13.606;2023-03-30T06:50:47;5.13;;;3.60;;
68655;SDS011;55638;51.122;13.606;2023-03-30T06:52:24;6.13;;;4.60;;
68655;SDS011;55638;51.122;13.606;2023-03-30T06:53:56;5.82;;;4.70;;
68655;SDS011;55638;51.122;13.606;2023-03-30T06:55:28;5.53;;;4.55;;
68655;SDS011;55638;51.122;13.606;2023-03-30T06:57:00;7.05;;;4.25;;
68655;SDS011;55638;51.122;13.606;2023-03-30T06:58:32;6.07;;;4.07;;
68655;SDS011;55638;51.122;13.606;2023-03-30T07:00:05;4.53;;;3.55;;
68655;SDS011;55638;51.122;13.606;2023-03-30T07:01:45;5.70;;;3.70;;
68655;SDS011;55638;51.122;13.606;2023-03-30T07:03:33;4.93;;;2.90;;
68655;SDS011;55638;51.122;13.606;2023-03-30T07:05:34;6.60;;;3.42;;
68655;SDS011;55638;51.122;13.606;2023-03-30T07:07:16;5.43;;;3.10;;
68655;SDS011;55638;51.122;13.606;2023-03-30T07:08:48;3.63;;;2.90;;
68655;SDS011;55638;51.122;13.606;2023-03-30T07:10:25;5.60;;;2.90;;
68655;SDS011;55638;51.122;13.606;2023-03-30T07:11:59;4.10;;;2.60;;
68655;SDS011;55638;51.122;13.606;2023-03-30T07:13:32;4.05;;;2.40;;
68655;SDS011;55638;51.122;13.606;2023-03-30T07:15:05;5.25;;;2.80;;
68655;SDS011;55638;51.122;13.606;2023-03-30T07:16:39;3.40;;;2.55;;
68655;SDS011;55638;51.122;13.606;2023-03-30T07:18:11;5.97;;;3.10;;
68655;SDS011;55638;51.122;13.606;2023-03-30T07:19:45;4.20;;;3.00;;
68655;SDS011;55638;51.122;13.606;2023-03-30T07:21:17;5.35;;;2.65;;
68655;SDS011;55638;51.122;13.606;2023-03-30T07:22:50;5.40;;;2.63;;
68655;SDS011;55638;51.122;13.606;2023-03-30T07:24:22;5.55;;;2.20;;
68655;SDS011;55638;51.122;13.606;2023-03-30T07:25:54;3.50;;;1.90;;
68655;SDS011;55638;51.122;13.606;2023-03-30T07:29:08;4.88;;;3.10;;
68655;SDS011;55638;51.122;13.606;2023-03-30T07:30:43;4.35;;;2.65;;
68655;SDS011;55638;51.122;13.606;2023-03-30T07:32:16;5.35;;;2.30;;
68655;SDS011;55638;51.122;13.606;2023-03-30T07:33:49;3.78;;;2.05;;
68655;SDS011;55638;51.122;13.606;2023-03-30T07:35:26;4.93;;;2.15;;
68655;SDS011;55638;51.122;13.606;2023-03-30T07:36:59;3.05;;;2.13;;
68655;SDS011;55638;51.122;13.606;2023-03-30T07:38:35;5.05;;;2.05;;
68655;SDS011;55638;51.122;13.606;2023-03-30T07:40:07;5.07;;;2.92;;
68655;SDS011;55638;51.122;13.606;2023-03-30T07:41:41;4.85;;;2.83;;
68655;SDS011;55638;51.122;13.606;2023-03-30T07:43:13;3.65;;;2.20;;
68655;SDS011;55638;51.122;13.606;2023-03-30T07:44:47;4.88;;;2.25;;
68655;SDS011;55638;51.122;13.606;2023-03-30T07:46:21;3.35;;;2.03;;
68655;SDS011;55638;51.122;13.606;2023-03-30T07:47:56;5.93;;;2.20;;
68655;SDS011;55638;51.122;13.606;2023-03-30T07:49:28;3.58;;;2.05;;
68655;SDS011;55638;51.122;13.606;2023-03-30T07:51:04;4.15;;;2.00;;
68655;SDS011;55638;51.122;13.606;2023-03-30T07:52:41;3.38;;;1.83;;
68655;SDS011;55638;51.122;13.606;2023-03-30T07:54:14;5.30;;;3.17;;
68655;SDS011;55638;51.122;13.606;2023-03-30T07:56:06;7.15;;;3.67;;
68655;SDS011;55638;51.122;13.606;2023-03-30T07:57:45;6.30;;;3.20;;
68655;SDS011;55638;51.122;13.606;2023-03-30T07:59:18;4.38;;;2.92;;
68655;SDS011;55638;51.122;13.606;2023-03-30T08:00:51;3.70;;;2.50;;
68655;SDS011;55638;51.122;13.606;2023-03-30T08:02:50;4.72;;;2.78;;
68655;SDS011;55638;51.122;13.606;2023-03-30T08:04:23;4.00;;;2.58;;
68655;SDS011;55638;51.122;13.606;2023-03-30T08:05:58;2.92;;;2.03;;
68655;SDS011;55638;51.122;13.606;2023-03-30T08:07:39;5.40;;;2.13;;
68655;SDS011;55638;51.122;13.606;2023-03-30T08:09:17;3.95;;;2.40;;
68655;SDS011;55638;51.122;13.606;2023-03-30T08:10:49;4.15;;;1.98;;
68655;SDS011;55638;51.122;13.606;2023-03-30T08:12:21;2.85;;;2.17;;
68655;SDS011;55638;51.122;13.606;2023-03-30T08:13:53;2.78;;;1.48;;
68655;SDS011;55638;51.122;13.606;2023-03-30T08:15:25;4.65;;;1.95;;
68655;SDS011;55638;51.122;13.606;2023-03-30T08:16:58;3.83;;;2.40;;
68655;SDS011;55638;51.122;13.606;2023-03-30T08:18:30;3.80;;;2.40;;
68655;SDS011;55638;51.122;13.606;2023-03-30T08:20:02;4.20;;;2.20;;
68655;SDS011;55638;51.122;13.606;2023-03-30T08:21:38;4.13;;;1.88;;
68655;SDS011;55638;51.122;13.606;2023-03-30T08:23:10;4.10;;;2.25;;
68655;SDS011;55638;51.122;13.606;2023-03-30T08:24:42;4.10;;;1.98;;
68655;SDS011;55638;51.122;13.606;2023-03-30T08:26:14;3.72;;;2.22;;
68655;SDS011;55638;51.122;13.606;2023-03-30T08:27:46;4.00;;;2.17;;
68655;SDS011;55638;51.122;13.606;2023-03-30T08:29:18;4.00;;;2.10;;
68655;SDS011;55638;51.122;13.606;2023-03-30T08:30:51;4.45;;;2.10;;
68655;SDS011;55638;51.122;13.606;2023-03-30T08:32:23;3.33;;;1.90;;
68655;SDS011;55638;51.122;13.606;2023-03-30T08:33:55;3.38;;;2.08;;
68655;SDS011;55638;51.122;13.606;2023-03-30T08:35:27;5.05;;;2.63;;
68655;SDS011;55638;51.122;13.606;2023-03-30T08:36:59;5.00;;;2.42;;
68655;SDS011;55638;51.122;13.606;2023-03-30T08:38:31;3.35;;;2.20;;
68655;SDS011;55638;51.122;13.606;2023-03-30T08:40:04;4.78;;;2.00;;
68655;SDS011;55638;51.122;13.606;2023-03-30T08:42:24;4.72;;;1.92;;
68655;SDS011;55638;51.122;13.606;2023-03-30T08:43:44;4.35;;;2.42;;
68655;SDS011;55638;51.122;13.606;2023-03-30T08:45:23;3.75;;;1.95;;
68655;SDS011;55638;51.122;13.606;2023-03-30T08:46:55;5.25;;;2.63;;
68655;SDS011;55638;51.122;13.606;2023-03-30T08:48:30;5.20;;;2.42;;
68655;SDS011;55638;51.122;13.606;2023-03-30T08:52:22;3.95;;;2.10;;
68655;SDS011;55638;51.122;13.606;2023-03-30T08:53:56;3.28;;;2.20;;
68655;SDS011;55638;51.122;13.606;2023-03-30T08:55:41;4.03;;;2.25;;
68655;SDS011;55638;51.122;13.606;2023-03-30T08:57:23;2.95;;;1.75;;
68655;SDS011;55638;51.122;13.606;2023-03-30T09:01:07;5.30;;;1.83;;
68655;SDS011;55638;51.122;13.606;2023-03-30T09:02:48;3.13;;;1.63;;
68655;SDS011;55638;51.122;13.606;2023-03-30T09:06:49;3.10;;;1.90;;
68655;SDS011;55638;51.122;13.606;2023-03-30T09:08:20;3.40;;;1.83;;
68655;SDS011;55638;51.122;13.606;2023-03-30T09:09:55;2.95;;;1.70;;
68655;SDS011;55638;51.122;13.606;2023-03-30T09:11:29;4.30;;;1.80;;
68655;SDS011;55638;51.122;13.606;2023-03-30T09:13:05;3.80;;;1.63;;
68655;SDS011;55638;51.122;13.606;2023-03-30T09:14:40;3.10;;;1.40;;
68655;SDS011;55638;51.122;13.606;2023-03-30T09:16:20;2.88;;;1.20;;
68655;SDS011;55638;51.122;13.606;2023-03-30T09:20:03;1.37;;;0.90;;
68655;SDS011;55638;51.122;13.606;2023-03-30T09:21:38;3.88;;;1.27;;
68655;SDS011;55638;51.122;13.606;2023-03-30T09:23:11;1.60;;;1.00;;
68655;SDS011;55638;51.122;13.606;2023-03-30T09:24:46;3.08;;;1.23;;
68655;SDS011;55638;51.122;13.606;2023-03-30T09:26:42;2.85;;;1.10;;
68655;SDS011;55638;51.122;13.606;2023-03-30T09:30:15;3.50;;;1.15;;
68655;SDS011;55638;51.122;13.606;2023-03-30T09:34:05;2.72;;;1.17;;
68655;SDS011;55638;51.122;13.606;2023-03-30T09:37:46;2.83;;;1.20;;
68655;SDS011;55638;51.122;13.606;2023-03-30T09:39:18;3.50;;;1.50;;
68655;SDS011;55638;51.122;13.606;2023-03-30T09:41:02;6.03;;;1.52;;
68655;SDS011;55638;51.122;13.606;2023-03-30T09:44:36;2.45;;;1.20;;
68655;SDS011;55638;51.122;13.606;2023-03-30T09:46:14;5.40;;;1.63;;
68655;SDS011;55638;51.122;13.606;2023-03-30T09:47:47;2.78;;;1.50;;
68655;SDS011;55638;51.122;13.606;2023-03-30T09:49:19;3.30;;;1.40;;
68655;SDS011;55638;51.122;13.606;2023-03-30T09:50:51;4.55;;;1.58;;
68655;SDS011;55638;51.122;13.606;2023-03-30T09:52:24;3.80;;;1.85;;
68655;SDS011;55638;51.122;13.606;2023-03-30T09:53:59;4.32;;;1.50;;
68655;SDS011;55638;51.122;13.606;2023-03-30T09:55:34;1.88;;;1.30;;
68655;SDS011;55638;51.122;13.606;2023-03-30T10:01:07;3.00;;;1.85;;
68655;SDS011;55638;51.122;13.606;2023-03-30T10:02:53;3.67;;;1.40;;
68655;SDS011;55638;51.122;13.606;2023-03-30T10:04:27;5.97;;;2.22;;
68655;SDS011;55638;51.122;13.606;2023-03-30T10:07:35;3.90;;;2.00;;
68655;SDS011;55638;51.122;13.606;2023-03-30T10:09:12;4.45;;;2.30;;
68655;SDS011;55638;51.122;13.606;2023-03-30T10:10:46;3.55;;;2.22;;
68655;SDS011;55638;51.122;13.606;2023-03-30T10:12:24;3.38;;;2.03;;
68655;SDS011;55638;51.122;13.606;2023-03-30T10:13:57;3.47;;;2.08;;
68655;SDS011;55638;51.122;13.606;2023-03-30T10:15:30;3.88;;;1.77;;
68655;SDS011;55638;51.122;13.606;2023-03-30T10:17:03;3.83;;;1.95;;
68655;SDS011;55638;51.122;13.606;2023-03-30T10:18:40;2.53;;;1.77;;
68655;SDS011;55638;51.122;13.606;2023-03-30T10:20:16;2.72;;;1.88;;
68655;SDS011;55638;51.122;13.606;2023-03-30T10:21:55;1.85;;;1.38;;
68655;SDS011;55638;51.122;13.606;2023-03-30T10:23:30;3.00;;;1.55;;
68655;SDS011;55638;51.122;13.606;2023-03-30T10:25:07;3.05;;;1.40;;
68655;SDS011;55638;51.122;13.606;2023-03-30T10:26:45;3.00;;;1.40;;
68655;SDS011;55638;51.122;13.606;2023-03-30T10:28:19;2.20;;;1.20;;
68655;SDS011;55638;51.122;13.606;2023-03-30T10:29:57;4.93;;;1.38;;
68655;SDS011;55638;51.122;13.606;2023-03-30T10:31:44;2.85;;;1.40;;
68655;SDS011;55638;51.122;13.606;2023-03-30T10:33:18;3.70;;;1.45;;